Time;durP1;ratioP1;P1;durP2;ratioP2;P2;SDS_P1;SDS_P2;PMS_P1;PMS_P2;Temp;Humidity;BMP_temperature;BMP_pressure;BME280_temperature;BME280_humidity;BME280_pressure;Samples;Min_cycle;Max_cycle;Signal;HPM_P1;HPM_P2
2023/03/24 00:00:13;;;;;;;2.42;1.13;;;;;;;10.87;100.00;99678.94;5042724;28;20033;-74
2023/03/24 00:02:41;;;;;;;1.80;1.00;;;;;;;10.90;100.00;99674.50;5043501;28;20511;-74
2023/03/24 00:05:12;;;;;;;3.13;1.30;;;;;;;10.94;100.00;99670.84;5041433;28;20072;-74
2023/03/24 00:07:39;;;;;;;3.80;1.30;;;;;;;11.02;99.83;99668.06;5041100;28;20040;-74
2023/03/24 00:10:08;;;;;;;3.78;1.10;;;;;;;10.99;99.46;99662.84;5044322;28;20084;-74
2023/03/24 00:12:37;;;;;;;4.43;1.42;;;;;;;11.00;99.69;99659.28;5043683;28;20491;-72
2023/03/24 00:15:08;;;;;;;3.10;1.15;;;;;;;11.02;100.00;99665.41;5039501;28;20045;-71
2023/03/24 00:17:34;;;;;;;4.55;1.30;;;;;;;11.05;100.00;99656.56;5040246;28;20041;-71
2023/03/24 00:20:13;;;;;;;3.97;1.38;;;;;;;11.11;100.00;99656.44;5042218;28;20479;-72
2023/03/24 00:22:41;;;;;;;3.42;1.40;;;;;;;11.18;100.00;99652.75;5047601;28;20115;-72
2023/03/24 00:25:09;;;;;;;3.10;1.27;;;;;;;11.27;99.71;99647.25;5049056;28;20112;-72
2023/03/24 00:27:35;;;;;;;2.67;1.20;;;;;;;11.33;99.16;99651.53;5043208;28;20033;-72
2023/03/24 00:30:03;;;;;;;2.55;1.23;;;;;;;11.37;98.15;99643.50;5037851;28;20547;-72
2023/03/24 00:32:29;;;;;;;2.00;1.10;;;;;;;11.39;98.00;99646.97;5045660;28;20563;-72
2023/03/24 00:34:54;;;;;;;1.73;1.02;;;;;;;11.43;98.16;99641.63;5042828;28;20117;-72
2023/03/24 00:37:20;;;;;;;3.15;1.30;;;;;;;11.45;98.12;99634.50;5038638;28;20091;-72
2023/03/24 00:39:45;;;;;;;2.80;1.42;;;;;;;11.47;98.27;99630.91;5042213;28;20395;-72
2023/03/24 00:42:12;;;;;;;3.72;1.55;;;;;;;11.53;97.96;99632.56;5039701;28;20033;-73
2023/03/24 00:44:38;;;;;;;2.42;1.15;;;;;;;11.61;97.87;99627.97;5042012;28;20039;-72
2023/03/24 00:47:03;;;;;;;3.03;1.73;;;;;;;11.74;97.16;99623.25;5043141;28;20029;-72
2023/03/24 00:49:43;;;;;;;3.97;2.00;;;;;;;11.89;97.02;99619.34;5043251;28;20029;-72
2023/03/24 00:52:16;;;;;;;4.32;1.50;;;;;;;12.05;95.96;99613.63;5025318;28;20037;-72
2023/03/24 00:54:44;;;;;;;5.20;1.55;;;;;;;12.17;95.41;99603.63;5038280;28;20041;-72
2023/03/24 00:57:20;;;;;;;2.90;1.60;;;;;;;12.31;94.17;99606.75;5045195;28;20028;-72
2023/03/24 00:59:47;;;;;;;2.58;1.15;;;;;;;12.43;93.27;99601.09;5038896;28;20037;-73
2023/03/24 01:02:23;;;;;;;4.18;1.50;;;;;;;12.52;92.27;99593.81;5044754;28;20411;-72
2023/03/24 01:04:56;;;;;;;3.08;1.45;;;;;;;12.58;92.49;99588.34;5043043;28;20041;-72
2023/03/24 01:07:23;;;;;;;3.25;1.60;;;;;;;12.65;92.08;99596.06;5040187;28;20041;-72
2023/03/24 01:09:56;;;;;;;4.18;1.55;;;;;;;12.71;91.47;99585.28;5041016;28;20037;-72
2023/03/24 01:12:23;;;;;;;3.40;1.63;;;;;;;12.77;91.59;99575.44;5040606;28;20036;-72
2023/03/24 01:14:49;;;;;;;2.88;1.58;;;;;;;12.76;90.96;99573.69;5042175;28;20045;-72
2023/03/24 01:17:14;;;;;;;2.97;1.60;;;;;;;12.68;91.60;99569.50;5043242;28;20044;-73
2023/03/24 01:19:40;;;;;;;4.13;1.90;;;;;;;12.76;91.58;99565.72;5048211;28;20095;-73
2023/03/24 01:22:06;;;;;;;3.65;1.58;;;;;;;12.84;91.42;99563.75;5044267;28;20121;-73
2023/03/24 01:24:32;;;;;;;3.38;1.45;;;;;;;12.86;91.11;99561.91;5043041;28;20041;-72
2023/03/24 01:26:57;;;;;;;3.90;1.92;;;;;;;12.85;91.03;99558.38;5040133;28;20041;-72
2023/03/24 01:29:23;;;;;;;4.38;1.75;;;;;;;12.78;91.04;99553.31;5045087;28;20047;-72
2023/03/24 01:31:48;;;;;;;3.40;1.90;;;;;;;12.63;91.24;99546.75;5046556;28;20029;-72
2023/03/24 01:34:13;;;;;;;4.57;2.05;;;;;;;12.50;92.20;99552.38;5042582;28;20083;-72
2023/03/24 01:36:39;;;;;;;3.97;2.25;;;;;;;12.46;92.19;99547.22;5042660;28;20033;-72
2023/03/24 01:39:04;;;;;;;3.08;1.50;;;;;;;12.34;93.13;99543.19;5045815;28;20029;-72
2023/03/24 01:41:36;;;;;;;3.08;1.33;;;;;;;12.31;92.86;99537.09;5050314;28;20591;-72
2023/03/24 01:44:26;;;;;;;3.35;1.50;;;;;;;12.34;93.41;99537.00;5044137;28;20041;-72
2023/03/24 01:46:53;;;;;;;3.60;1.63;;;;;;;12.39;93.18;99533.31;5041466;28;20045;-73
2023/03/24 01:49:19;;;;;;;3.80;1.45;;;;;;;12.46;93.08;99528.69;5027404;28;20033;-72
2023/03/24 01:51:49;;;;;;;3.83;2.00;;;;;;;12.47;92.74;99528.66;5046209;28;20043;-72
2023/03/24 01:54:20;;;;;;;3.72;1.67;;;;;;;12.53;92.33;99521.47;5042759;28;20091;-72
2023/03/24 01:56:54;;;;;;;4.75;1.77;;;;;;;12.57;91.97;99529.22;5041842;28;20051;-72
2023/03/24 01:59:26;;;;;;;4.43;2.15;;;;;;;12.59;92.00;99526.56;5044260;28;20517;-74
2023/03/24 02:02:13;;;;;;;3.40;1.83;;;;;;;12.58;91.96;99509.81;5028207;28;20065;-74
2023/03/24 02:04:49;;;;;;;3.22;1.70;;;;;;;12.64;92.17;99517.56;5041496;28;20431;-75
2023/03/24 02:07:27;;;;;;;3.15;1.90;;;;;;;12.62;91.97;99511.44;5043133;28;20029;-75
2023/03/24 02:09:52;;;;;;;3.42;1.88;;;;;;;12.63;92.10;99505.25;5043658;28;20068;-75
2023/03/24 02:12:17;;;;;;;4.85;1.52;;;;;;;12.55;92.53;99501.97;5043297;28;20419;-75
2023/03/24 02:14:43;;;;;;;2.63;1.50;;;;;;;12.51;92.75;99508.25;5043976;28;20407;-74
2023/03/24 02:17:25;;;;;;;2.50;1.23;;;;;;;12.51;93.12;99505.63;5041755;28;20037;-75
2023/03/24 02:20:11;;;;;;;3.22;1.60;;;;;;;12.47;93.15;99511.91;5046297;28;20069;-74
2023/03/24 02:23:03;;;;;;;5.25;2.75;;;;;;;12.44;94.12;99512.00;5045620;28;20040;-74
2023/03/24 02:25:47;;;;;;;2.83;1.30;;;;;;;12.32;94.47;99507.09;5041094;28;20037;-75
2023/03/24 02:28:15;;;;;;;3.55;1.75;;;;;;;12.31;94.82;99506.19;5042445;28;20037;-75
2023/03/24 02:31:18;;;;;;;3.40;1.48;;;;;;;12.32;95.60;99507.94;5043538;28;20495;-74
2023/03/24 02:34:08;;;;;;;4.18;2.00;;;;;;;12.35;95.32;99509.63;5044778;28;20487;-75
2023/03/24 02:37:20;;;;;;;3.60;1.83;;;;;;;12.45;95.67;99504.03;5032451;28;20116;-74
2023/03/24 02:40:17;;;;;;;3.60;2.07;;;;;;;12.55;95.49;99493.13;5012685;28;20045;-75
2023/03/24 02:42:48;;;;;;;3.78;1.67;;;;;;;12.61;95.48;99496.47;5041042;28;20056;-74
2023/03/24 02:45:26;;;;;;;4.00;1.93;;;;;;;12.65;95.80;99490.19;5030423;28;20037;-74
2023/03/24 02:48:16;;;;;;;4.30;1.80;;;;;;;12.66;96.08;99483.97;5043887;28;20280;-74
2023/03/24 02:50:59;;;;;;;4.53;1.88;;;;;;;12.75;95.32;99489.88;5041111;28;20025;-74
2023/03/24 02:53:43;;;;;;;4.15;2.28;;;;;;;12.78;95.34;99473.91;5043766;28;20034;-74
2023/03/24 02:56:37;;;;;;;4.03;2.03;;;;;;;12.79;95.36;99473.00;5032753;28;20087;-74
2023/03/24 02:59:20;;;;;;;4.65;2.45;;;;;;;12.83;95.23;99471.97;5039300;28;20115;-74
2023/03/24 03:02:01;;;;;;;3.72;1.95;;;;;;;12.87;95.04;99463.88;5042329;28;20033;-74
2023/03/24 03:04:39;;;;;;;5.22;2.15;;;;;;;12.93;94.47;99468.09;5038892;28;20025;-74
2023/03/24 03:07:11;;;;;;;6.18;2.05;;;;;;;12.91;94.30;99465.50;5045117;28;20608;-74
2023/03/24 03:09:46;;;;;;;3.92;1.77;;;;;;;13.00;94.08;99466.13;5040718;28;20056;-74
2023/03/24 03:12:12;;;;;;;6.00;1.95;;;;;;;13.05;93.89;99467.72;5043749;28;20047;-74
2023/03/24 03:14:44;;;;;;;4.82;2.53;;;;;;;13.09;93.80;99463.16;5043665;28;20453;-74
2023/03/24 03:17:19;;;;;;;4.45;2.08;;;;;;;13.02;95.08;99466.94;5039478;28;20057;-74
2023/03/24 03:19:56;;;;;;;4.82;1.90;;;;;;;13.09;95.70;99465.81;5041186;28;20102;-75
2023/03/24 03:22:27;;;;;;;4.55;1.95;;;;;;;13.06;96.14;99465.94;5030434;28;20030;-75
2023/03/24 03:24:56;;;;;;;5.60;2.13;;;;;;;13.05;96.67;99465.06;5040231;28;20108;-74
2023/03/24 03:27:26;;;;;;;4.15;2.13;;;;;;;13.04;97.50;99465.97;5042810;28;20033;-74
2023/03/24 03:29:56;;;;;;;6.90;2.17;;;;;;;13.06;97.47;99463.28;5041234;28;20033;-74
2023/03/24 03:32:28;;;;;;;4.45;2.05;;;;;;;13.04;98.15;99465.97;5043866;28;20035;-74
2023/03/24 03:35:07;;;;;;;4.57;2.00;;;;;;;13.02;99.60;99462.53;5025640;28;20039;-75
2023/03/24 03:37:42;;;;;;;4.65;2.28;;;;;;;12.96;100.00;99456.56;5039716;28;20102;-74
2023/03/24 03:40:10;;;;;;;6.65;2.17;;;;;;;12.91;100.00;99464.63;5039996;28;20044;-74
2023/03/24 03:42:39;;;;;;;5.13;2.33;;;;;;;12.90;100.00;99450.53;5041003;28;20060;-74
2023/03/24 03:45:08;;;;;;;4.10;2.13;;;;;;;12.94;100.00;99440.69;5045037;28;20496;-74
2023/03/24 03:47:34;;;;;;;4.40;2.05;;;;;;;12.87;100.00;99440.06;5035212;28;20029;-75
2023/03/24 03:50:00;;;;;;;6.15;2.63;;;;;;;12.81;100.00;99447.31;5041679;28;20036;-74
2023/03/24 03:52:26;;;;;;;5.03;2.20;;;;;;;12.77;100.00;99448.34;5043143;28;20557;-74
2023/03/24 03:54:52;;;;;;;5.03;2.10;;;;;;;12.78;100.00;99442.13;5039007;28;20037;-75
2023/03/24 03:57:18;;;;;;;4.43;2.08;;;;;;;12.77;100.00;99437.75;5040455;28;20109;-75
2023/03/24 04:00:06;;;;;;;8.18;3.53;;;;;;;12.78;100.00;99420.94;5007439;28;1024676;-74
2023/03/24 04:02:58;;;;;;;5.10;2.50;;;;;;;12.80;100.00;99414.69;5043905;28;20041;-74
2023/03/24 04:05:32;;;;;;;5.75;2.72;;;;;;;12.75;100.00;99415.75;5039142;28;20431;-74
2023/03/24 04:08:15;;;;;;;4.60;2.47;;;;;;;12.78;100.00;99426.25;5039656;28;20041;-74
2023/03/24 04:11:25;;;;;;;6.18;2.50;;;;;;;12.84;100.00;99436.66;5041964;28;20064;-74
2023/03/24 04:14:28;;;;;;;6.32;2.63;;;;;;;12.78;100.00;99442.97;5040138;28;20144;-74
2023/03/24 04:17:47;;;;;;;3.50;1.90;;;;;;;12.80;100.00;99429.72;5041768;28;20048;-74
2023/03/24 04:20:51;;;;;;;4.28;1.98;;;;;;;12.83;100.00;99434.91;5039190;28;20446;-75
2023/03/24 04:23:26;;;;;;;5.38;2.30;;;;;;;12.85;100.00;99433.94;5045155;28;20621;-76
2023/03/24 04:26:14;;;;;;;4.50;2.22;;;;;;;12.87;100.00;99423.31;5042514;28;20029;-76
2023/03/24 04:29:11;;;;;;;5.57;2.65;;;;;;;12.85;100.00;99419.84;5042450;28;20064;-76
2023/03/24 04:31:48;;;;;;;6.15;2.22;;;;;;;12.81;100.00;99412.91;5040920;28;20116;-76
2023/03/24 04:34:40;;;;;;;5.18;2.25;;;;;;;12.84;100.00;99415.47;5055824;28;20032;-76
2023/03/24 04:37:22;;;;;;;8.27;2.55;;;;;;;12.81;100.00;99416.44;5047408;28;20518;-76
2023/03/24 04:39:57;;;;;;;6.55;2.60;;;;;;;12.90;100.00;99404.66;5040167;28;20048;-76
2023/03/24 04:42:37;;;;;;;4.68;2.50;;;;;;;12.91;100.00;99409.03;5042551;28;20104;-75
2023/03/24 04:45:05;;;;;;;5.95;3.00;;;;;;;12.86;100.00;99408.31;5024706;28;20029;-76
2023/03/24 04:47:56;;;;;;;4.13;2.30;;;;;;;12.90;100.00;99410.81;5041472;28;20099;-76
2023/03/24 04:50:37;;;;;;;8.52;4.22;;;;;;;12.90;100.00;99404.66;5040016;28;20112;-76
2023/03/24 04:53:08;;;;;;;6.57;2.85;;;;;;;12.90;100.00;99404.66;5027612;28;20032;-76
2023/03/24 04:55:48;;;;;;;4.53;2.47;;;;;;;12.90;100.00;99402.88;5037633;28;20065;-76
2023/03/24 04:58:15;;;;;;;4.43;2.17;;;;;;;12.93;100.00;99400.13;5041520;28;20029;-75
2023/03/24 05:00:42;;;;;;;3.55;2.08;;;;;;;12.97;100.00;99394.72;5039956;28;20403;-76
2023/03/24 05:03:13;;;;;;;3.63;1.70;;;;;;;13.00;100.00;99387.53;5032524;28;20037;-76
2023/03/24 05:05:42;;;;;;;3.38;1.80;;;;;;;13.08;100.00;99377.53;5051711;28;20072;-76
2023/03/24 05:08:09;;;;;;;4.20;1.85;;;;;;;13.08;100.00;99371.38;5049667;28;20041;-76
2023/03/24 05:10:35;;;;;;;3.30;1.95;;;;;;;13.05;100.00;99377.66;5042031;28;20056;-76
2023/03/24 05:13:03;;;;;;;3.75;2.22;;;;;;;13.06;100.00;99375.88;5051025;28;20530;-76
2023/03/24 05:15:52;;;;;;;4.80;2.25;;;;;;;13.14;100.00;99379.97;5042624;28;20109;-76
2023/03/24 05:18:32;;;;;;;3.83;1.85;;;;;;;13.13;100.00;99374.75;5048917;28;20171;-76
2023/03/24 05:20:59;;;;;;;2.95;1.70;;;;;;;13.15;100.00;99370.22;5034564;28;20128;-77
2023/03/24 05:23:25;;;;;;;3.92;1.60;;;;;;;13.19;100.00;99368.34;5032130;28;20040;-76
2023/03/24 05:25:51;;;;;;;3.50;2.00;;;;;;;13.15;100.00;99373.78;5044463;28;20041;-76
2023/03/24 05:28:19;;;;;;;4.75;1.80;;;;;;;13.08;100.00;99366.94;5045528;28;20435;-76
2023/03/24 05:30:46;;;;;;;5.30;2.03;;;;;;;13.03;100.00;99366.25;5048768;28;20476;-76
2023/03/24 05:33:21;;;;;;;5.18;2.20;;;;;;;13.02;100.00;99364.53;5045341;28;20043;-76
2023/03/24 05:35:47;;;;;;;4.13;2.10;;;;;;;13.08;100.00;99360.78;5042786;28;20033;-76
2023/03/24 05:38:13;;;;;;;4.00;2.15;;;;;;;13.13;100.00;99359.72;5046230;28;20033;-76
2023/03/24 05:40:42;;;;;;;3.55;2.17;;;;;;;13.18;100.00;99345.41;5042415;28;20529;-76
2023/03/24 05:43:11;;;;;;;3.85;1.80;;;;;;;13.23;100.00;99348.75;5046284;28;20043;-77
2023/03/24 05:45:40;;;;;;;4.20;2.00;;;;;;;13.22;100.00;99342.59;5044434;28;20040;-76
2023/03/24 05:48:06;;;;;;;4.70;2.10;;;;;;;13.17;100.00;99339.25;5048234;28;20039;-77
2023/03/24 05:50:52;;;;;;;3.72;1.85;;;;;;;13.13;100.00;99335.88;5046913;28;20064;-76
2023/03/24 05:53:19;;;;;;;5.10;2.88;;;;;;;13.15;100.00;99330.50;5046414;28;20131;-76
2023/03/24 05:56:10;;;;;;;6.53;1.80;;;;;;;13.12;100.00;99326.16;5045011;28;20041;-76
2023/03/24 05:58:57;;;;;;;3.60;1.65;;;;;;;13.13;100.00;99322.63;5045826;28;20033;-76
2023/03/24 06:01:29;;;;;;;4.25;2.22;;;;;;;13.23;100.00;99324.91;5034685;28;20116;-77
2023/03/24 06:04:05;;;;;;;4.63;1.92;;;;;;;13.33;100.00;99321.06;5050456;28;20029;-76
2023/03/24 06:06:31;;;;;;;5.82;2.20;;;;;;;13.34;100.00;99317.50;5042321;28;20060;-77
2023/03/24 06:08:57;;;;;;;4.03;1.90;;;;;;;13.36;100.00;99302.38;5044327;28;20105;-76
2023/03/24 06:11:24;;;;;;;5.25;2.47;;;;;;;13.40;100.00;99297.84;5044184;28;20037;-76
2023/03/24 06:13:59;;;;;;;4.70;2.53;;;;;;;13.44;100.00;99299.44;5045638;28;20316;-76
2023/03/24 06:16:26;;;;;;;5.03;2.55;;;;;;;13.57;100.00;99282.16;5040140;28;20499;-77
2023/03/24 06:18:59;;;;;;;3.80;2.00;;;;;;;13.69;100.00;99276.41;5045291;28;20039;-77
2023/03/24 06:21:43;;;;;;;9.85;4.63;;;;;;;13.79;100.00;99279.56;5046326;28;20065;-77
2023/03/24 06:24:13;;;;;;;4.20;2.03;;;;;;;13.75;99.67;99275.28;5044334;28;20033;-76
2023/03/24 06:26:40;;;;;;;3.78;2.03;;;;;;;13.79;98.56;99280.41;5042810;28;20127;-76
2023/03/24 06:29:07;;;;;;;4.45;2.30;;;;;;;13.85;97.20;99276.66;5048575;28;20454;-76
2023/03/24 06:31:36;;;;;;;3.70;1.73;;;;;;;13.82;96.79;99279.44;5049760;28;20033;-76
2023/03/24 06:34:05;;;;;;;4.68;1.73;;;;;;;13.86;96.96;99270.44;5047964;28;20158;-77
2023/03/24 06:36:33;;;;;;;4.53;2.00;;;;;;;13.91;97.09;99273.78;5026099;28;20120;-76
2023/03/24 06:39:01;;;;;;;3.50;1.90;;;;;;;13.86;97.61;99266.91;5042480;28;20040;-77
2023/03/24 06:41:27;;;;;;;4.18;1.95;;;;;;;13.86;97.55;99265.13;5048388;28;20053;-76
2023/03/24 06:43:56;;;;;;;6.47;2.58;;;;;;;13.89;97.16;99267.66;5032931;28;20068;-77
2023/03/24 06:46:22;;;;;;;3.25;1.60;;;;;;;13.86;97.55;99265.13;5023569;28;20079;-76
2023/03/24 06:48:48;;;;;;;5.20;2.25;;;;;;;13.91;97.35;99278.19;5044995;28;20029;-76
2023/03/24 06:51:13;;;;;;;3.70;1.92;;;;;;;13.98;96.33;99280.53;5044436;28;20028;-77
2023/03/24 06:53:42;;;;;;;5.68;2.53;;;;;;;14.05;95.83;99282.97;5050497;28;20601;-77
2023/03/24 06:56:09;;;;;;;5.30;2.30;;;;;;;14.06;95.25;99284.69;5051315;28;20032;-76
2023/03/24 06:58:42;;;;;;;5.55;2.38;;;;;;;14.09;95.12;99285.41;5033499;28;20036;-77
2023/03/24 07:01:14;;;;;;;4.18;1.80;;;;;;;14.11;95.57;99277.41;5056527;28;20063;-75
2023/03/24 07:03:52;;;;;;;4.20;2.13;;;;;;;14.12;95.95;99271.16;5061187;28;20136;-74
2023/03/24 07:06:28;;;;;;;5.80;2.10;;;;;;;14.13;96.56;99270.25;5029931;28;20055;-74
2023/03/24 07:08:58;;;;;;;5.60;2.42;;;;;;;14.19;95.76;99256.72;5036141;28;20124;-74
2023/03/24 07:11:26;;;;;;;3.22;1.75;;;;;;;14.14;95.99;99259.56;5055287;28;20032;-74
2023/03/24 07:13:55;;;;;;;4.15;2.42;;;;;;;14.07;95.81;99259.88;5047981;28;21323;-74
2023/03/24 07:16:21;;;;;;;5.78;2.30;;;;;;;14.06;95.68;99256.34;5046193;28;20032;-74
2023/03/24 07:18:53;;;;;;;3.83;2.20;;;;;;;14.06;95.66;99250.19;5044372;28;20036;-74
2023/03/24 07:21:19;;;;;;;4.13;2.15;;;;;;;14.01;95.68;99247.72;5039554;28;20045;-74
2023/03/24 07:23:47;;;;;;;3.72;1.60;;;;;;;14.17;94.96;99253.25;5039135;28;20025;-74
2023/03/24 07:26:19;;;;;;;4.43;2.05;;;;;;;14.17;94.71;99253.25;5044745;28;20028;-74
2023/03/24 07:28:48;;;;;;;3.95;1.90;;;;;;;14.21;94.53;99246.91;5042122;28;20407;-74
2023/03/24 07:31:23;;;;;;;3.78;1.92;;;;;;;14.17;93.25;99247.97;5047664;28;20031;-74
2023/03/24 07:33:56;;;;;;;6.38;2.10;;;;;;;14.21;93.19;99233.66;5046117;28;20495;-74
2023/03/24 07:36:22;;;;;;;5.07;2.50;;;;;;;14.20;93.57;99237.22;5040193;28;20034;-74
2023/03/24 07:38:47;;;;;;;5.20;2.17;;;;;;;14.26;93.26;99236.97;5030890;28;20027;-74
2023/03/24 07:41:23;;;;;;;6.18;3.20;;;;;;;14.33;92.03;99234.91;5047621;28;20091;-74
2023/03/24 07:43:52;;;;;;;6.72;2.42;;;;;;;14.33;91.60;99226.94;5044521;28;20029;-74
2023/03/24 07:46:38;;;;;;;4.05;1.73;;;;;;;14.32;91.58;99242.00;5042705;28;20040;-74
2023/03/24 07:49:04;;;;;;;4.97;2.20;;;;;;;14.42;90.54;99237.19;5040028;28;20538;-74
2023/03/24 07:51:29;;;;;;;4.78;2.10;;;;;;;14.53;90.03;99236.75;5041112;28;20090;-74
2023/03/24 07:53:58;;;;;;;4.40;2.00;;;;;;;14.54;90.65;99233.16;5043894;28;20580;-74
2023/03/24 07:56:32;;;;;;;8.70;4.63;;;;;;;14.63;91.19;99233.66;5045991;28;20067;-74
2023/03/24 07:59:00;;;;;;;7.60;4.22;;;;;;;14.85;89.73;99235.34;5038383;28;20715;-74
2023/03/24 08:01:48;;;;;;;5.05;2.80;;;;;;;15.04;88.09;99235.41;5030752;22;20091;-77
2023/03/24 08:04:14;;;;;;;4.25;2.28;;;;;;;15.07;86.89;99238.78;5057242;28;20109;-78
2023/03/24 08:07:04;;;;;;;4.25;2.10;;;;;;;15.13;86.23;99246.47;5077682;28;20036;-78
2023/03/24 08:09:29;;;;;;;3.90;1.80;;;;;;;15.16;85.91;99245.47;5096191;28;20088;-78
2023/03/24 08:11:54;;;;;;;4.68;2.20;;;;;;;15.21;84.91;99243.47;5093986;28;20102;-78
2023/03/24 08:14:20;;;;;;;4.70;2.15;;;;;;;15.33;84.54;99248.22;5064033;28;20033;-78
2023/03/24 08:16:45;;;;;;;4.05;2.47;;;;;;;15.25;83.99;99239.75;5065706;28;20119;-78
2023/03/24 08:19:10;;;;;;;4.32;1.83;;;;;;;15.34;83.49;99244.63;5068335;28;20047;-78
2023/03/24 08:21:36;;;;;;;4.97;2.42;;;;;;;15.39;84.13;99252.41;5065539;28;20037;-78
2023/03/24 08:24:01;;;;;;;5.00;2.00;;;;;;;15.38;83.79;99260.44;5069925;28;20184;-78
2023/03/24 08:26:27;;;;;;;3.97;2.20;;;;;;;15.43;83.24;99243.34;5063219;28;20537;-78
2023/03/24 08:28:53;;;;;;;6.97;2.40;;;;;;;15.59;83.07;99250.59;5058935;28;20036;-78
2023/03/24 08:31:18;;;;;;;3.70;1.95;;;;;;;15.60;82.97;99255.84;5065592;28;20402;-78
2023/03/24 08:33:44;;;;;;;5.53;2.38;;;;;;;15.65;82.69;99252.97;5063326;28;20039;-78
2023/03/24 08:36:09;;;;;;;4.45;2.15;;;;;;;15.67;82.19;99251.97;5065110;28;20105;-77
2023/03/24 08:38:37;;;;;;;4.78;1.65;;;;;;;15.68;81.22;99253.69;5053268;28;20032;-78
2023/03/24 08:41:05;;;;;;;4.40;2.08;;;;;;;15.73;81.93;99241.06;5064715;28;20037;-78
2023/03/24 08:43:33;;;;;;;4.25;2.40;;;;;;;15.72;81.22;99252.66;5065604;28;20040;-77
2023/03/24 08:46:00;;;;;;;6.20;2.40;;;;;;;15.73;80.58;99251.69;5056914;28;20662;-78
2023/03/24 08:48:27;;;;;;;4.70;2.10;;;;;;;15.73;79.98;99261.50;5060790;28;20059;-78
2023/03/24 08:50:53;;;;;;;4.70;1.85;;;;;;;15.77;79.82;99255.97;5062593;28;20024;-78
2023/03/24 08:53:19;;;;;;;3.63;1.70;;;;;;;15.81;78.62;99261.97;5069530;28;20566;-78
2023/03/24 08:55:45;;;;;;;3.53;1.90;;;;;;;15.90;78.54;99271.31;5049904;28;20509;-78
2023/03/24 08:58:18;;;;;;;3.42;1.45;;;;;;;15.86;76.71;99277.72;5063641;28;20406;-78
2023/03/24 09:00:46;;;;;;;4.03;1.83;;;;;;;15.80;77.09;99286.88;5067667;28;20025;-78
2023/03/24 09:03:16;;;;;;;4.28;1.85;;;;;;;15.74;76.38;99293.31;5062825;28;20053;-78
2023/03/24 09:05:43;;;;;;;5.25;1.88;;;;;;;15.70;76.64;99289.09;5060454;28;20033;-78
2023/03/24 09:08:08;;;;;;;2.72;1.30;;;;;;;15.69;77.31;99298.03;5066321;28;20101;-78
2023/03/24 09:10:34;;;;;;;4.20;1.83;;;;;;;15.66;78.55;99297.25;5064352;28;20033;-78
2023/03/24 09:12:59;;;;;;;6.38;1.30;;;;;;;15.65;77.10;99284.91;5065493;28;20445;-78
2023/03/24 09:15:25;;;;;;;2.03;0.82;;;;;;;15.67;77.10;99299.00;5041316;28;20037;-78
2023/03/24 09:17:50;;;;;;;3.00;1.10;;;;;;;15.72;77.22;99292.56;5060372;28;20032;-78
2023/03/24 09:20:17;;;;;;;2.45;0.90;;;;;;;15.93;76.86;99295.13;5068055;28;20086;-78
2023/03/24 09:22:44;;;;;;;1.77;0.77;;;;;;;16.00;75.74;99296.53;5064532;28;20036;-78
2023/03/24 09:25:13;;;;;;;2.42;1.25;;;;;;;16.04;74.93;99290.16;5063757;28;20049;-78
2023/03/24 09:27:38;;;;;;;2.72;1.08;;;;;;;16.16;74.25;99286.88;5062043;28;20036;-78
2023/03/24 09:30:05;;;;;;;1.83;0.98;;;;;;;16.32;74.63;99294.09;5070930;28;20051;-78
2023/03/24 09:32:32;;;;;;;3.40;1.00;;;;;;;16.47;73.71;99288.03;5063348;28;20497;-78
2023/03/24 09:34:58;;;;;;;1.65;0.90;;;;;;;16.49;74.79;99293.28;5060837;28;20033;-78
2023/03/24 09:37:23;;;;;;;2.83;1.20;;;;;;;16.47;75.31;99289.84;5061011;28;20035;-79
2023/03/24 09:39:48;;;;;;;3.33;1.02;;;;;;;16.28;75.60;99281.91;5062610;28;20036;-78
2023/03/24 09:42:20;;;;;;;3.10;1.65;;;;;;;16.29;77.00;99294.25;5067276;28;20102;-78
2023/03/24 09:44:50;;;;;;;2.72;1.02;;;;;;;16.36;75.08;99290.38;5066150;28;20563;-78
2023/03/24 09:47:27;;;;;;;2.40;1.10;;;;;;;16.46;74.67;99275.66;5034451;28;20454;-78
2023/03/24 09:49:54;;;;;;;3.63;1.33;;;;;;;16.58;73.41;99271.50;5065179;28;20052;-79
2023/03/24 09:52:30;;;;;;;2.47;1.30;;;;;;;16.69;71.47;99268.28;5067737;28;20127;-78
2023/03/24 09:54:57;;;;;;;2.67;1.35;;;;;;;17.11;72.10;99264.34;5063635;28;20538;-78
2023/03/24 09:57:45;;;;;;;7.65;2.58;;;;;;;17.37;70.79;99266.50;5066930;28;20036;-78
2023/03/24 10:00:22;;;;;;;6.15;1.80;;;;;;;17.72;69.56;99263.69;5066780;28;20117;-78
2023/03/24 10:02:49;;;;;;;2.42;1.40;;;;;;;17.98;68.69;99261.41;5068841;28;20506;-79
2023/03/24 10:05:18;;;;;;;3.10;1.52;;;;;;;18.32;66.51;99255.00;5066013;28;20043;-78
2023/03/24 10:08:06;;;;;;;3.40;1.55;;;;;;;18.42;65.96;99255.28;5047602;28;20044;-78
2023/03/24 10:10:58;;;;;;;3.00;1.38;;;;;;;18.53;64.90;99261.72;5064583;28;20167;-79
2023/03/24 10:14:02;;;;;;;3.33;2.22;;;;;;;18.66;65.27;99253.84;5064590;28;20033;-78
2023/03/24 10:16:54;;;;;;;4.30;1.70;;;;;;;18.75;62.89;99253.31;5044045;28;20039;-78
2023/03/24 10:19:43;;;;;;;3.95;1.30;;;;;;;18.73;61.68;99248.97;5066805;28;20041;-78
2023/03/24 10:22:47;;;;;;;4.22;1.30;;;;;;;18.64;61.59;99253.06;5050096;28;20040;-78
2023/03/24 10:25:18;;;;;;;5.65;1.42;;;;;;;18.69;60.85;99259.00;5067000;28;20038;-78
2023/03/24 10:27:50;;;;;;;4.27;1.40;;;;;;;18.80;60.34;99245.88;5065621;28;20123;-78
2023/03/24 10:30:21;;;;;;;3.38;1.70;;;;;;;18.93;61.74;99255.84;5066228;28;20033;-78
2023/03/24 10:32:46;;;;;;;3.55;1.50;;;;;;;18.96;60.57;99245.81;5072523;28;20051;-78
2023/03/24 10:35:26;;;;;;;2.15;1.13;;;;;;;19.12;58.60;99250.22;5065472;28;20486;-78
2023/03/24 10:37:56;;;;;;;2.63;1.38;;;;;;;19.21;61.33;99260.38;5067320;28;20556;-78
2023/03/24 10:40:26;;;;;;;2.55;1.38;;;;;;;19.34;58.00;99249.75;5070147;28;20119;-78
2023/03/24 10:42:51;;;;;;;3.70;1.52;;;;;;;19.38;58.35;99256.63;5070957;28;20092;-78
2023/03/24 10:45:31;;;;;;;3.05;1.70;;;;;;;19.56;58.31;99250.09;5064612;28;20124;-78
2023/03/24 10:47:59;;;;;;;3.03;1.38;;;;;;;19.67;58.08;99249.44;5072275;28;20042;-78
2023/03/24 10:50:28;;;;;;;4.55;1.55;;;;;;;19.57;57.78;99256.31;5067245;28;20099;-78
2023/03/24 10:52:54;;;;;;;3.22;0.95;;;;;;;19.33;57.48;99248.03;5070921;28;20430;-79
2023/03/24 10:55:22;;;;;;;2.40;1.20;;;;;;;18.92;58.77;99291.56;5062879;28;20036;-78
2023/03/24 10:57:55;;;;;;;2.75;1.40;;;;;;;18.84;59.27;99297.38;5065422;28;20094;-78
2023/03/24 11:00:28;;;;;;;3.42;1.33;;;;;;;18.72;60.71;99274.84;5066406;28;20025;-79
2023/03/24 11:03:05;;;;;;;2.72;1.20;;;;;;;18.71;60.98;99267.81;5069158;28;20044;-78
2023/03/24 11:05:36;;;;;;;2.33;1.10;;;;;;;18.79;61.82;99280.75;5068227;28;20068;-79
2023/03/24 11:08:20;;;;;;;2.38;1.20;;;;;;;18.83;60.03;99285.78;5071534;28;20116;-78
2023/03/24 11:10:45;;;;;;;3.17;1.10;;;;;;;18.38;61.17;99286.66;5066293;28;20087;-78
2023/03/24 11:13:38;;;;;;;2.33;1.00;;;;;;;18.43;61.63;99286.41;5072134;28;20037;-78
2023/03/24 11:16:04;;;;;;;1.52;0.73;;;;;;;18.44;62.21;99285.44;5063213;28;20083;-78
2023/03/24 11:18:31;;;;;;;2.42;1.10;;;;;;;18.26;61.78;99282.91;5054928;28;20051;-78
2023/03/24 11:21:05;;;;;;;2.70;1.20;;;;;;;18.28;63.00;99274.78;5067247;28;20040;-78
2023/03/24 11:23:33;;;;;;;2.28;0.98;;;;;;;18.29;62.59;99272.03;5070104;28;20086;-78
2023/03/24 11:26:13;;;;;;;3.90;1.20;;;;;;;18.18;61.49;99277.13;5051171;28;20097;-78
2023/03/24 11:28:53;;;;;;;2.78;1.10;;;;;;;18.15;62.05;99275.50;5067138;28;20048;-78
2023/03/24 11:31:29;;;;;;;2.35;1.27;;;;;;;18.28;62.68;99269.47;5047521;28;20043;-78
2023/03/24 11:34:01;;;;;;;1.92;1.10;;;;;;;18.43;60.72;99273.91;5061591;28;20055;-79
2023/03/24 11:36:30;;;;;;;2.13;1.10;;;;;;;18.73;61.02;99276.59;5068699;28;20059;-78
2023/03/24 11:39:09;;;;;;;2.03;1.02;;;;;;;18.73;60.06;99267.69;5064778;28;20033;-79
2023/03/24 11:41:38;;;;;;;2.88;1.02;;;;;;;18.90;60.14;99277.41;5069239;28;20040;-78
2023/03/24 11:44:23;;;;;;;2.25;1.02;;;;;;;19.06;60.50;99272.84;5068954;28;20051;-78
2023/03/24 11:46:53;;;;;;;2.15;1.10;;;;;;;19.11;59.88;99273.44;5059595;28;20028;-78
2023/03/24 11:49:24;;;;;;;1.80;1.00;;;;;;;18.97;60.37;99263.59;5067959;28;20162;-79
2023/03/24 11:51:53;;;;;;;2.33;1.20;;;;;;;19.11;59.57;99259.22;5069300;28;20481;-79
2023/03/24 11:54:22;;;;;;;1.63;0.90;;;;;;;19.07;59.48;99274.56;5069768;28;20037;-79
2023/03/24 11:56:53;;;;;;;2.35;1.10;;;;;;;19.01;59.22;99259.75;5067927;28;20048;-77